createdAt,value
2023-05-05T00:02:27.447Z,1.17
2023-05-05T00:04:55.533Z,1.52
2023-05-05T00:07:23.230Z,1.35
2023-05-05T00:09:51.051Z,1.35
2023-05-05T00:12:18.771Z,1.30
2023-05-05T00:14:46.530Z,1.30
2023-05-05T00:17:14.330Z,1.08
2023-05-05T00:19:42.156Z,1.30
2023-05-05T00:22:12.494Z,1.63
2023-05-05T00:24:40.334Z,1.55
2023-05-05T00:27:08.076Z,1.70
2023-05-05T00:29:36.456Z,1.70
2023-05-05T00:32:04.364Z,1.33
2023-05-05T00:34:32.156Z,1.67
2023-05-05T00:37:00.820Z,1.33
2023-05-05T00:39:28.553Z,1.85
2023-05-05T00:41:56.433Z,1.80
2023-05-05T00:44:37.390Z,1.75
2023-05-05T00:47:05.712Z,1.50
2023-05-05T00:49:35.500Z,1.52
2023-05-05T00:52:04.306Z,1.75
2023-05-05T00:54:32.212Z,1.60
2023-05-05T00:57:03.187Z,1.70
2023-05-05T00:59:31.636Z,1.70
2023-05-05T01:01:59.959Z,2.13
2023-05-05T01:04:28.098Z,1.70
2023-05-05T01:07:02.220Z,1.52
2023-05-05T01:09:42.549Z,1.73
2023-05-05T01:12:19.513Z,1.60
2023-05-05T01:15:02.953Z,1.80
2023-05-05T01:17:43.213Z,1.65
2023-05-05T01:20:18.990Z,1.70
2023-05-05T01:22:47.854Z,1.77
2023-05-05T01:25:41.731Z,1.40
2023-05-05T01:31:05.916Z,1.75
2023-05-05T01:33:41.005Z,1.60
2023-05-05T01:36:13.732Z,1.30
2023-05-05T01:38:44.504Z,1.60
2023-05-05T01:41:17.783Z,1.45
2023-05-05T01:43:50.021Z,1.80
2023-05-05T01:46:19.394Z,1.63
2023-05-05T01:48:48.640Z,1.90
2023-05-05T01:51:18.094Z,2.03
2023-05-05T01:53:47.421Z,1.80
2023-05-05T01:56:16.511Z,2.00
2023-05-05T01:58:45.413Z,2.20
2023-05-05T02:01:13.861Z,2.60
2023-05-05T02:03:42.445Z,2.33
2023-05-05T02:06:10.489Z,2.33
2023-05-05T02:08:39.784Z,2.00
2023-05-05T02:11:09.695Z,2.72
2023-05-05T02:13:39.623Z,2.50
2023-05-05T02:16:07.686Z,2.38
2023-05-05T02:18:36.246Z,2.00
2023-05-05T02:21:04.365Z,2.50
2023-05-05T02:23:33.460Z,2.45
2023-05-05T02:26:06.664Z,2.40
2023-05-05T02:31:10.957Z,2.60
2023-05-05T02:33:39.673Z,2.67
2023-05-05T02:36:13.016Z,2.40
2023-05-05T02:38:54.856Z,2.60
2023-05-05T02:41:25.725Z,2.50
2023-05-05T02:43:55.462Z,2.30
2023-05-05T02:46:23.978Z,2.45
2023-05-05T02:48:52.682Z,2.38
2023-05-05T02:51:20.658Z,2.50
2023-05-05T02:53:48.612Z,2.10
2023-05-05T02:56:39.010Z,2.63
2023-05-05T02:59:16.440Z,2.00
2023-05-05T03:01:57.575Z,1.98
2023-05-05T03:05:01.712Z,1.73
2023-05-05T03:07:48.120Z,1.90
2023-05-05T03:10:18.938Z,2.05
2023-05-05T03:12:54.019Z,2.13
2023-05-05T03:15:41.608Z,1.88
2023-05-05T03:18:13.069Z,1.90
2023-05-05T03:20:44.528Z,1.80
2023-05-05T03:23:15.106Z,2.10
2023-05-05T03:25:46.791Z,1.90
2023-05-05T03:28:22.585Z,3.10
2023-05-05T03:30:51.022Z,2.72
2023-05-05T03:33:19.929Z,4.82
2023-05-05T03:35:48.065Z,5.50
2023-05-05T03:38:15.877Z,6.05
2023-05-05T03:40:45.006Z,6.95
2023-05-05T03:43:17.497Z,10.07
2023-05-05T03:45:45.366Z,9.70
2023-05-05T03:48:13.679Z,9.70
2023-05-05T03:50:45.253Z,8.70
2023-05-05T03:53:14.462Z,10.15
2023-05-05T03:55:43.423Z,10.18
2023-05-05T03:58:12.267Z,9.63
2023-05-05T04:00:40.042Z,12.55
2023-05-05T04:03:08.036Z,13.55
2023-05-05T04:05:36.130Z,10.63
2023-05-05T04:08:04.146Z,8.48
2023-05-05T04:10:32.331Z,7.20
2023-05-05T04:13:01.425Z,7.97
2023-05-05T04:15:31.152Z,5.20
2023-05-05T04:17:59.038Z,5.15
2023-05-05T04:20:27.572Z,4.18
2023-05-05T04:23:00.389Z,3.20
2023-05-05T04:25:30.525Z,2.40
2023-05-05T04:28:02.534Z,2.35
2023-05-05T04:30:31.730Z,2.30
2023-05-05T04:33:03.003Z,2.20
2023-05-05T04:35:31.465Z,1.83
2023-05-05T04:38:02.061Z,1.90
2023-05-05T04:40:31.456Z,1.95
2023-05-05T04:42:59.959Z,2.13
2023-05-05T04:45:27.942Z,1.95
2023-05-05T04:47:56.058Z,1.77
2023-05-05T04:50:23.853Z,2.13
2023-05-05T04:52:52.767Z,3.05
2023-05-05T04:55:21.432Z,2.10
2023-05-05T04:57:49.280Z,1.85
2023-05-05T05:00:17.297Z,2.63
2023-05-05T05:02:45.071Z,2.35
2023-05-05T05:05:12.883Z,1.50
2023-05-05T05:07:40.966Z,1.35
2023-05-05T05:10:09.524Z,1.48
2023-05-05T05:12:37.649Z,1.70
2023-05-05T05:15:06.304Z,1.40
2023-05-05T05:17:36.274Z,1.52
2023-05-05T05:20:05.145Z,1.38
2023-05-05T05:22:35.045Z,1.50
2023-05-05T05:25:03.904Z,1.50
2023-05-05T05:27:31.798Z,1.20
2023-05-05T05:29:59.630Z,1.70
2023-05-05T05:32:28.241Z,1.70
2023-05-05T05:34:56.473Z,1.15
2023-05-05T05:37:24.376Z,1.50
2023-05-05T05:39:55.656Z,1.70
2023-05-05T05:42:24.957Z,1.70
2023-05-05T05:44:53.603Z,1.73
2023-05-05T05:47:21.463Z,1.30
2023-05-05T05:49:50.580Z,1.48
2023-05-05T05:52:18.362Z,1.50
2023-05-05T05:54:46.374Z,1.35
2023-05-05T05:57:14.225Z,1.58
2023-05-05T05:59:42.254Z,1.30
2023-05-05T06:02:10.573Z,1.30
2023-05-05T06:04:38.673Z,1.38
2023-05-05T06:07:06.525Z,1.40
2023-05-05T06:09:34.492Z,1.50
2023-05-05T06:12:03.987Z,1.50
2023-05-05T06:14:32.592Z,1.65
2023-05-05T06:17:03.197Z,1.60
2023-05-05T06:19:33.300Z,1.60
2023-05-05T06:22:01.295Z,1.50
2023-05-05T06:24:29.339Z,1.50
2023-05-05T06:26:59.421Z,1.27
2023-05-05T06:29:27.222Z,1.50
2023-05-05T06:31:55.305Z,2.13
2023-05-05T06:34:23.088Z,1.98
2023-05-05T06:36:50.948Z,1.60
2023-05-05T06:39:18.784Z,1.58
2023-05-05T06:41:46.540Z,1.92
2023-05-05T06:44:14.364Z,1.77
2023-05-05T06:46:43.933Z,1.50
2023-05-05T06:49:11.846Z,1.70
2023-05-05T06:51:41.049Z,1.90
2023-05-05T06:54:29.565Z,1.77
2023-05-05T06:56:59.408Z,1.80
2023-05-05T06:59:27.513Z,1.70
2023-05-05T07:01:55.202Z,1.55
2023-05-05T07:04:23.168Z,1.75
2023-05-05T07:06:50.924Z,1.67
2023-05-05T07:09:18.809Z,1.67
2023-05-05T07:11:46.781Z,1.80
2023-05-05T07:14:14.599Z,1.60
2023-05-05T07:16:42.445Z,1.92
2023-05-05T07:19:10.235Z,1.73
2023-05-05T07:21:39.781Z,1.70
2023-05-05T07:24:07.767Z,1.88
2023-05-05T07:26:35.760Z,1.50
2023-05-05T07:29:04.670Z,1.40
2023-05-05T07:31:32.559Z,2.05
2023-05-05T07:34:00.757Z,1.80
2023-05-05T07:36:28.676Z,1.75
2023-05-05T07:38:56.646Z,2.20
2023-05-05T07:41:24.446Z,1.67
2023-05-05T07:43:52.245Z,1.60
2023-05-05T07:46:20.134Z,1.52
2023-05-05T07:48:48.009Z,1.60
2023-05-05T07:51:16.284Z,1.48
2023-05-05T07:53:44.135Z,1.80
2023-05-05T07:56:11.905Z,1.60
2023-05-05T07:58:39.692Z,1.80
2023-05-05T08:01:10.954Z,1.98
2023-05-05T08:03:38.950Z,1.35
2023-05-05T08:06:09.585Z,1.50
2023-05-05T08:08:38.018Z,1.42
2023-05-05T08:11:06.725Z,1.70
2023-05-05T08:13:34.893Z,1.52
2023-05-05T08:16:02.868Z,1.75
2023-05-05T08:18:30.733Z,1.40
2023-05-05T08:20:58.476Z,1.48
2023-05-05T08:23:26.219Z,2.00
2023-05-05T08:25:54.023Z,1.83
2023-05-05T08:28:23.110Z,1.83
2023-05-05T08:30:51.040Z,1.60
2023-05-05T08:33:18.847Z,2.00
2023-05-05T08:35:46.756Z,3.30
2023-05-05T08:38:14.668Z,4.00
2023-05-05T08:40:42.857Z,2.17
2023-05-05T08:43:11.432Z,2.20
2023-05-05T08:45:42.502Z,2.17
2023-05-05T08:48:10.395Z,2.20
2023-05-05T08:50:40.145Z,1.80
2023-05-05T08:53:15.543Z,2.60
2023-05-05T08:55:53.415Z,2.00
2023-05-05T08:58:23.400Z,1.80
2023-05-05T09:00:52.019Z,1.80
2023-05-05T09:03:20.280Z,1.70
2023-05-05T09:05:48.241Z,1.80
2023-05-05T09:08:16.441Z,1.83
2023-05-05T09:10:44.925Z,1.88
2023-05-05T09:13:13.342Z,1.90
2023-05-05T09:15:42.267Z,1.98
2023-05-05T09:18:12.182Z,3.17
2023-05-05T09:20:41.350Z,1.80
2023-05-05T09:23:12.758Z,1.90
2023-05-05T09:25:41.709Z,1.90
2023-05-05T09:28:15.149Z,1.70
2023-05-05T09:30:47.094Z,1.63
2023-05-05T09:33:14.934Z,1.58
2023-05-05T09:35:51.191Z,2.00
2023-05-05T09:38:20.253Z,1.98
2023-05-05T09:40:49.775Z,2.17
2023-05-05T09:43:18.932Z,2.00
2023-05-05T09:45:48.901Z,2.10
2023-05-05T09:48:31.260Z,2.03
2023-05-05T09:50:59.701Z,2.20
2023-05-05T09:53:28.221Z,2.50
2023-05-05T09:55:57.405Z,2.22
2023-05-05T09:58:30.740Z,1.90
2023-05-05T10:00:59.452Z,1.98
2023-05-05T10:03:27.314Z,1.67
2023-05-05T10:05:57.227Z,1.95
2023-05-05T10:08:26.458Z,2.38
2023-05-05T10:11:00.645Z,1.60
2023-05-05T10:13:28.928Z,1.45
2023-05-05T10:15:58.174Z,1.85
2023-05-05T10:18:27.599Z,1.70
2023-05-05T10:20:58.648Z,1.88
2023-05-05T10:24:06.192Z,1.35
2023-05-05T10:26:35.234Z,1.60
2023-05-05T10:29:03.288Z,1.70
2023-05-05T10:31:47.256Z,1.60
2023-05-05T10:34:29.829Z,2.05
2023-05-05T10:36:57.814Z,1.50
2023-05-05T10:39:26.898Z,1.80
2023-05-05T10:41:54.775Z,1.90
2023-05-05T10:44:23.152Z,1.80
2023-05-05T10:46:51.400Z,1.70
2023-05-05T10:49:37.878Z,1.52
2023-05-05T10:52:28.692Z,1.50
2023-05-05T10:55:12.261Z,1.80
2023-05-05T10:57:42.088Z,1.70
2023-05-05T11:00:10.991Z,2.92
2023-05-05T11:02:38.972Z,2.25
2023-05-05T11:05:25.944Z,2.60
2023-05-05T11:07:53.676Z,1.88
2023-05-05T11:10:23.190Z,1.92
2023-05-05T11:13:03.251Z,2.20
2023-05-05T11:15:31.304Z,2.42
2023-05-05T11:18:07.356Z,2.10
2023-05-05T11:20:43.269Z,1.92
2023-05-05T11:23:13.358Z,1.95
2023-05-05T11:25:45.446Z,1.85
2023-05-05T11:28:15.052Z,1.60
2023-05-05T11:30:55.046Z,2.15
2023-05-05T11:33:39.919Z,1.50
2023-05-05T11:36:09.543Z,1.65
2023-05-05T11:38:52.432Z,2.50
2023-05-05T11:41:33.595Z,1.70
2023-05-05T11:44:30.859Z,2.58
2023-05-05T11:47:02.307Z,2.25
2023-05-05T11:49:47.757Z,2.20
2023-05-05T11:52:15.655Z,1.83
2023-05-05T11:54:49.328Z,1.40
2023-05-05T11:57:21.326Z,2.30
2023-05-05T12:00:07.733Z,2.30
2023-05-05T12:02:41.999Z,1.60
2023-05-05T12:05:09.922Z,1.20
2023-05-05T12:07:37.805Z,1.50
2023-05-05T12:10:06.306Z,1.20
2023-05-05T12:12:38.730Z,1.27
2023-05-05T12:15:08.302Z,1.75
2023-05-05T12:17:41.055Z,1.30
2023-05-05T12:20:10.586Z,1.83
2023-05-05T12:22:38.882Z,1.20
2023-05-05T12:25:08.135Z,1.73
2023-05-05T12:27:36.297Z,2.83
2023-05-05T12:30:18.125Z,2.13
2023-05-05T12:32:46.204Z,2.00
2023-05-05T12:35:14.585Z,2.08
2023-05-05T12:37:43.621Z,1.90
2023-05-05T12:40:45.188Z,1.85
2023-05-05T12:43:29.485Z,1.60
2023-05-05T12:46:12.499Z,1.80
2023-05-05T12:48:52.850Z,1.40
2023-05-05T12:51:27.354Z,1.30
2023-05-05T12:54:09.994Z,1.25
2023-05-05T12:56:40.708Z,1.38
2023-05-05T12:59:23.951Z,1.20
2023-05-05T13:01:56.341Z,1.30
2023-05-05T13:04:27.876Z,1.38
2023-05-05T13:07:13.027Z,1.20
2023-05-05T13:09:42.558Z,1.13
2023-05-05T13:12:12.965Z,1.17
2023-05-05T13:14:42.147Z,1.20
2023-05-05T13:17:11.566Z,1.85
2023-05-05T13:19:46.550Z,1.45
2023-05-05T13:22:16.177Z,1.10
2023-05-05T13:24:52.174Z,1.25
2023-05-05T13:27:24.485Z,1.50
2023-05-05T13:29:52.397Z,1.30
2023-05-05T13:32:21.516Z,1.20
2023-05-05T13:35:00.838Z,1.10
2023-05-05T13:37:54.861Z,1.10
2023-05-05T13:40:25.212Z,1.30
2023-05-05T13:42:53.855Z,1.10
2023-05-05T13:45:21.822Z,1.50
2023-05-05T13:47:49.713Z,1.50
2023-05-05T13:50:18.458Z,1.20
2023-05-05T13:52:46.377Z,1.33
2023-05-05T13:55:14.186Z,1.35
2023-05-05T13:57:42.456Z,1.40
2023-05-05T14:00:10.744Z,1.40
2023-05-05T14:02:38.601Z,1.45
2023-05-05T14:05:07.530Z,1.33
2023-05-05T14:07:35.484Z,1.52
2023-05-05T14:10:03.341Z,1.50
2023-05-05T14:12:32.556Z,1.20
2023-05-05T14:15:02.718Z,1.60
2023-05-05T14:17:38.110Z,1.50
2023-05-05T14:20:09.543Z,1.38
2023-05-05T14:22:37.569Z,1.40
2023-05-05T14:25:06.408Z,1.30
2023-05-05T14:27:34.508Z,1.38
2023-05-05T14:30:03.524Z,1.67
2023-05-05T14:32:33.225Z,1.25
2023-05-05T14:35:01.114Z,1.42
2023-05-05T14:37:28.999Z,1.30
2023-05-05T14:39:56.839Z,1.50
2023-05-05T14:42:25.420Z,1.95
2023-05-05T14:44:53.693Z,1.92
2023-05-05T14:47:21.545Z,2.03
2023-05-05T14:49:49.547Z,1.92
2023-05-05T14:52:17.409Z,1.40
2023-05-05T14:54:45.218Z,1.73
2023-05-05T14:57:13.073Z,2.00
2023-05-05T14:59:40.956Z,2.10
2023-05-05T15:02:08.866Z,1.60
2023-05-05T15:04:36.805Z,1.90
2023-05-05T15:07:18.211Z,1.65
2023-05-05T15:09:46.067Z,1.75
2023-05-05T15:12:13.943Z,2.05
2023-05-05T15:14:42.501Z,1.50
2023-05-05T15:17:13.613Z,1.70
2023-05-05T15:19:41.779Z,1.77
2023-05-05T15:22:09.631Z,1.70
2023-05-05T15:24:37.462Z,1.67
2023-05-05T15:27:05.608Z,1.60
2023-05-05T15:29:33.567Z,1.50
2023-05-05T15:32:01.609Z,1.60
2023-05-05T15:34:29.549Z,1.80
2023-05-05T15:36:57.490Z,1.60
2023-05-05T15:39:25.494Z,1.60
2023-05-05T15:42:00.696Z,1.60
2023-05-05T15:44:28.605Z,1.60
2023-05-05T15:46:56.538Z,1.38
2023-05-05T15:49:27.559Z,1.95
2023-05-05T15:51:55.294Z,1.42
2023-05-05T15:54:23.082Z,1.60
2023-05-05T15:56:50.786Z,1.50
2023-05-05T15:59:19.206Z,1.50
2023-05-05T16:01:47.691Z,1.80
2023-05-05T16:04:54.050Z,1.70
2023-05-05T16:07:21.898Z,1.88
2023-05-05T16:09:49.758Z,1.60
2023-05-05T16:12:17.617Z,2.40
2023-05-05T16:14:45.473Z,1.90
2023-05-05T16:17:13.286Z,1.70
2023-05-05T16:19:41.164Z,1.60
2023-05-05T16:22:09.178Z,1.48
2023-05-05T16:24:37.456Z,1.65
2023-05-05T16:27:05.234Z,1.50
2023-05-05T16:29:33.156Z,1.10
2023-05-05T16:32:01.282Z,1.23
2023-05-05T16:34:29.174Z,1.58
2023-05-05T16:36:57.510Z,1.27
2023-05-05T16:39:26.338Z,1.70
2023-05-05T16:41:54.326Z,1.60
2023-05-05T16:44:22.133Z,1.30
2023-05-05T16:46:49.987Z,1.35
2023-05-05T16:49:18.492Z,1.55
2023-05-05T16:51:46.243Z,1.70
2023-05-05T16:54:14.128Z,1.85
2023-05-05T16:56:42.017Z,1.30
2023-05-05T16:59:09.786Z,1.65
2023-05-05T17:01:37.697Z,1.45
2023-05-05T17:04:06.752Z,1.30
2023-05-05T17:06:35.684Z,1.70
2023-05-05T17:09:03.576Z,1.83
2023-05-05T17:11:31.492Z,2.25
2023-05-05T17:13:59.356Z,1.98
2023-05-05T17:16:27.314Z,1.67
2023-05-05T17:18:55.182Z,1.85
2023-05-05T17:21:23.572Z,2.28
2023-05-05T17:23:51.457Z,2.05
2023-05-05T17:26:19.359Z,2.38
2023-05-05T17:28:47.277Z,2.40
2023-05-05T17:31:25.074Z,2.13
2023-05-05T17:33:53.050Z,1.65
2023-05-05T17:36:21.094Z,2.17
2023-05-05T17:38:48.920Z,2.08
2023-05-05T17:41:17.042Z,2.00
2023-05-05T17:43:44.926Z,1.88
2023-05-05T17:46:12.729Z,1.85
2023-05-05T17:48:40.815Z,1.60
2023-05-05T17:51:08.805Z,2.30
2023-05-05T17:53:36.661Z,1.92
2023-05-05T17:56:06.514Z,2.13
2023-05-05T17:58:36.077Z,2.25
2023-05-05T18:01:06.384Z,1.92
2023-05-05T18:03:39.211Z,1.90
2023-05-05T18:06:11.693Z,2.50
2023-05-05T18:08:39.824Z,4.88
2023-05-05T18:11:07.814Z,3.30
2023-05-05T18:13:35.764Z,3.60
2023-05-05T18:16:03.993Z,3.63
2023-05-05T18:18:37.892Z,2.80
2023-05-05T18:21:12.357Z,3.58
2023-05-05T18:23:40.637Z,3.08
2023-05-05T18:26:08.870Z,3.10
2023-05-05T18:28:40.333Z,2.80
2023-05-05T18:31:22.014Z,2.97
2023-05-05T18:33:52.896Z,2.85
2023-05-05T18:36:23.914Z,2.85
2023-05-05T18:38:52.190Z,3.30
2023-05-05T18:41:25.564Z,3.60
2023-05-05T18:43:53.571Z,2.78
2023-05-05T18:46:35.986Z,2.63
2023-05-05T18:49:14.415Z,2.50
2023-05-05T18:51:42.847Z,2.75
2023-05-05T18:54:10.929Z,4.18
2023-05-05T18:56:41.729Z,2.45
2023-05-05T18:59:25.098Z,2.65
2023-05-05T19:01:59.538Z,3.13
2023-05-05T19:04:44.083Z,3.10
2023-05-05T19:07:24.093Z,2.50
2023-05-05T19:10:02.223Z,2.50
2023-05-05T19:12:33.073Z,2.17
2023-05-05T19:15:05.075Z,2.40
2023-05-05T19:17:33.632Z,2.67
2023-05-05T19:20:01.650Z,2.95
2023-05-05T19:22:32.504Z,2.25
2023-05-05T19:25:04.000Z,2.58
2023-05-05T19:27:43.193Z,2.30
2023-05-05T19:30:11.845Z,2.00
2023-05-05T19:32:46.737Z,1.80
2023-05-05T19:35:24.355Z,2.00
2023-05-05T19:39:00.023Z,1.95
2023-05-05T19:41:37.096Z,2.00
2023-05-05T19:48:24.749Z,2.10
2023-05-05T19:51:08.587Z,2.40
2023-05-05T19:54:03.540Z,3.00
2023-05-05T19:57:45.111Z,2.65
2023-05-05T20:00:40.935Z,2.90
2023-05-05T20:03:10.089Z,2.40
2023-05-05T20:05:55.062Z,1.95
2023-05-05T20:08:52.303Z,2.67
2023-05-05T20:11:36.125Z,2.33
2023-05-05T20:14:15.921Z,2.47
2023-05-05T20:20:12.937Z,2.20
2023-05-05T20:22:45.345Z,2.60
2023-05-05T20:25:15.418Z,2.63
2023-05-05T20:27:44.521Z,2.63
2023-05-05T20:30:21.896Z,2.03
2023-05-05T20:32:58.403Z,2.20
2023-05-05T20:35:37.912Z,2.50
2023-05-05T20:38:09.829Z,2.20
2023-05-05T20:40:53.530Z,5.07
2023-05-05T20:43:32.086Z,2.17
2023-05-05T20:46:07.409Z,1.85
2023-05-05T20:48:44.645Z,1.85
2023-05-05T20:51:12.777Z,1.95
2023-05-05T20:53:43.750Z,2.30
2023-05-05T20:58:41.554Z,1.63
2023-05-05T21:01:30.079Z,2.03
2023-05-05T21:03:58.209Z,1.90
2023-05-05T21:06:26.135Z,5.50
2023-05-05T21:08:53.898Z,2.00
2023-05-05T21:11:21.784Z,1.85
2023-05-05T21:13:58.514Z,1.77
2023-05-05T21:16:26.470Z,2.00
2023-05-05T21:18:54.430Z,2.30
2023-05-05T21:21:23.948Z,1.90
2023-05-05T21:23:51.885Z,2.05
2023-05-05T21:26:19.721Z,2.47
2023-05-05T21:28:47.527Z,1.90
2023-05-05T21:33:48.986Z,1.60
2023-05-05T21:36:17.813Z,1.35
2023-05-05T21:38:46.116Z,1.60
2023-05-05T21:41:29.807Z,1.60
2023-05-05T21:44:01.036Z,1.30
2023-05-05T21:46:29.178Z,31.10
2023-05-05T21:48:57.248Z,42.15
2023-05-05T21:51:25.441Z,2.30
2023-05-05T21:53:53.258Z,1.30
2023-05-05T21:56:21.053Z,1.45
2023-05-05T21:58:48.807Z,1.30
2023-05-05T22:01:16.547Z,1.20
2023-05-05T22:03:49.424Z,1.30
2023-05-05T22:06:17.538Z,1.25
2023-05-05T22:08:45.326Z,1.10
2023-05-05T22:11:13.237Z,1.30
2023-05-05T22:13:41.299Z,0.90
2023-05-05T22:16:09.958Z,1.30
2023-05-05T22:18:38.177Z,1.00
2023-05-05T22:21:06.263Z,1.15
2023-05-05T22:23:34.145Z,1.02
2023-05-05T22:26:02.072Z,1.30
2023-05-05T22:28:33.141Z,1.15
2023-05-05T22:31:01.219Z,1.27
2023-05-05T22:33:29.045Z,1.20
2023-05-05T22:35:57.574Z,1.10
2023-05-05T22:38:27.936Z,1.27
2023-05-05T22:40:55.761Z,1.23
2023-05-05T22:43:23.550Z,1.17
2023-05-05T22:45:51.416Z,1.00
2023-05-05T22:48:19.243Z,1.08
2023-05-05T22:50:47.189Z,1.10
2023-05-05T22:53:14.997Z,1.30
2023-05-05T22:55:42.733Z,1.10
2023-05-05T22:58:10.504Z,1.20
2023-05-05T23:00:38.318Z,1.10
2023-05-05T23:03:06.255Z,1.10
2023-05-05T23:05:34.758Z,1.00
2023-05-05T23:08:02.601Z,0.90
2023-05-05T23:10:30.833Z,0.82
2023-05-05T23:12:58.737Z,1.25
2023-05-05T23:15:26.675Z,1.00
2023-05-05T23:17:54.708Z,1.20
2023-05-05T23:20:22.662Z,1.20
2023-05-05T23:22:50.583Z,1.30
2023-05-05T23:25:18.758Z,1.38
2023-05-05T23:27:48.537Z,1.15
2023-05-05T23:30:16.724Z,1.20
2023-05-05T23:32:45.125Z,1.50
2023-05-05T23:35:13.230Z,1.30
2023-05-05T23:37:41.112Z,1.20
2023-05-05T23:40:09.395Z,1.40
2023-05-05T23:42:37.139Z,1.50
2023-05-05T23:45:05.197Z,1.13
2023-05-05T23:47:33.057Z,1.25
2023-05-05T23:50:01.031Z,1.20
2023-05-05T23:52:29.685Z,1.40
2023-05-05T23:54:57.501Z,1.45
2023-05-05T23:57:25.483Z,1.50
2023-05-05T23:59:53.320Z,1.20
